createdAt,value
2019-03-29T00:01:24.895Z,55.88
2019-03-29T00:03:56.313Z,55.27
2019-03-29T00:06:27.460Z,55.69
2019-03-29T00:08:58.602Z,55.27
2019-03-29T00:11:29.964Z,55.53
2019-03-29T00:14:02.126Z,55.69
2019-03-29T00:16:33.651Z,55.84
2019-03-29T00:19:04.901Z,55.72
2019-03-29T00:21:36.062Z,55.15
2019-03-29T00:24:07.487Z,55.50
2019-03-29T00:26:38.372Z,55.18
2019-03-29T00:29:09.435Z,54.81
2019-03-29T00:31:40.491Z,54.53
2019-03-29T00:34:13.409Z,54.50
2019-03-29T00:36:44.991Z,53.99
2019-03-29T00:39:16.206Z,53.84
2019-03-29T00:41:47.063Z,53.60
2019-03-29T00:44:17.913Z,54.79
2019-03-29T00:46:50.176Z,55.44
2019-03-29T00:49:21.390Z,55.95
2019-03-29T00:51:52.363Z,55.64
2019-03-29T00:54:23.172Z,55.92
2019-03-29T00:56:54.234Z,55.92
2019-03-29T00:59:25.272Z,56.69
2019-03-29T01:01:56.135Z,57.04
2019-03-29T01:04:28.986Z,56.97
2019-03-29T01:07:00.168Z,57.17
2019-03-29T01:09:31.206Z,57.28
2019-03-29T01:12:02.075Z,57.43
2019-03-29T01:14:33.275Z,57.55
2019-03-29T01:17:04.485Z,58.16
2019-03-29T01:19:35.394Z,58.58
2019-03-29T01:22:06.236Z,58.97
2019-03-29T01:24:37.083Z,58.93
2019-03-29T01:27:08.150Z,58.34
2019-03-29T01:29:39.253Z,57.94
2019-03-29T01:32:10.173Z,58.83
2019-03-29T01:34:41.298Z,59.24
2019-03-29T01:37:12.451Z,58.67
2019-03-29T01:39:43.318Z,58.57
2019-03-29T01:42:14.511Z,58.70
2019-03-29T01:44:45.701Z,58.80
2019-03-29T01:47:16.606Z,58.27
2019-03-29T01:49:47.678Z,57.52
2019-03-29T01:52:19.306Z,57.03
2019-03-29T01:54:50.901Z,57.61
2019-03-29T01:57:21.800Z,57.86
2019-03-29T01:59:52.760Z,57.37
2019-03-29T02:02:24.023Z,57.43
2019-03-29T02:04:55.186Z,56.95
2019-03-29T02:07:26.130Z,57.61
2019-03-29T02:09:57.141Z,57.44
2019-03-29T02:12:28.296Z,58.08
2019-03-29T02:14:59.200Z,58.67
2019-03-29T02:17:30.012Z,59.08
2019-03-29T02:20:01.176Z,59.24
2019-03-29T02:22:32.974Z,59.17
2019-03-29T02:25:03.878Z,59.56
2019-03-29T02:27:35.809Z,58.87
2019-03-29T02:30:07.313Z,59.38
2019-03-29T02:32:38.256Z,59.70
2019-03-29T02:35:11.449Z,59.51
2019-03-29T02:37:42.724Z,59.39
2019-03-29T02:40:13.632Z,58.95
2019-03-29T02:42:44.861Z,58.59
2019-03-29T02:45:16.331Z,59.02
2019-03-29T02:47:48.687Z,59.11
2019-03-29T02:50:19.762Z,59.53
2019-03-29T02:52:50.899Z,59.63
2019-03-29T02:55:21.728Z,60.37
2019-03-29T02:57:52.623Z,60.56
2019-03-29T03:00:23.483Z,60.90
2019-03-29T03:02:54.661Z,61.21
2019-03-29T03:05:25.743Z,60.99
2019-03-29T03:07:56.715Z,60.96
2019-03-29T03:10:27.690Z,61.23
2019-03-29T03:12:59.354Z,60.79
2019-03-29T03:15:30.309Z,60.65
2019-03-29T03:18:01.138Z,60.54
2019-03-29T03:20:32.340Z,60.75
2019-03-29T03:23:03.202Z,60.33
2019-03-29T03:25:34.045Z,60.20
2019-03-29T03:28:04.966Z,59.57
2019-03-29T03:30:35.868Z,59.56
2019-03-29T03:33:07.245Z,59.55
2019-03-29T03:35:38.126Z,59.81
2019-03-29T03:38:09.056Z,60.43
2019-03-29T03:40:40.257Z,60.93
2019-03-29T03:43:11.082Z,60.68
2019-03-29T03:45:42.978Z,60.88
2019-03-29T03:48:13.987Z,60.34
2019-03-29T03:50:45.333Z,59.72
2019-03-29T03:53:16.261Z,59.64
2019-03-29T03:55:47.211Z,60.13
2019-03-29T03:58:19.679Z,60.62
2019-03-29T04:01:00.062Z,60.76
2019-03-29T04:03:30.926Z,60.15
2019-03-29T04:06:01.728Z,60.70
2019-03-29T04:08:32.957Z,60.38
2019-03-29T04:11:04.264Z,60.06
2019-03-29T04:13:35.139Z,60.42
2019-03-29T04:16:06.318Z,60.73
2019-03-29T04:18:37.572Z,61.16
2019-03-29T04:21:10.701Z,61.09
2019-03-29T04:23:42.786Z,61.27
2019-03-29T04:26:13.950Z,60.89
2019-03-29T04:28:44.772Z,60.92
2019-03-29T04:31:15.743Z,60.85
2019-03-29T04:33:46.541Z,60.53
2019-03-29T04:36:17.496Z,60.33
2019-03-29T04:38:48.643Z,60.64
2019-03-29T04:41:19.508Z,60.79
2019-03-29T04:43:51.643Z,60.85
2019-03-29T04:46:22.847Z,60.40
2019-03-29T04:48:53.658Z,59.89
2019-03-29T04:51:24.759Z,59.33
2019-03-29T04:53:56.006Z,59.14
2019-03-29T04:56:26.964Z,59.38
2019-03-29T04:58:58.895Z,58.99
2019-03-29T05:01:30.054Z,58.33
2019-03-29T05:04:00.874Z,57.46
2019-03-29T05:06:31.990Z,56.84
2019-03-29T05:09:02.909Z,56.67
2019-03-29T05:11:35.100Z,56.14
2019-03-29T05:14:06.206Z,56.13
2019-03-29T05:16:37.091Z,55.74
2019-03-29T05:19:08.075Z,55.47
2019-03-29T05:21:39.253Z,54.82
2019-03-29T05:24:10.098Z,54.80
2019-03-29T05:26:40.993Z,54.69
2019-03-29T05:29:11.955Z,54.48
2019-03-29T05:31:42.768Z,53.99
2019-03-29T05:34:13.628Z,53.43
2019-03-29T05:36:44.846Z,53.30
2019-03-29T05:39:15.808Z,52.62
2019-03-29T05:41:46.933Z,51.73
2019-03-29T05:44:17.903Z,51.25
2019-03-29T05:46:48.775Z,50.66
2019-03-29T05:49:19.749Z,48.47
2019-03-29T05:51:50.718Z,48.41
2019-03-29T05:54:21.527Z,47.26
2019-03-29T05:56:52.718Z,46.49
2019-03-29T05:59:23.637Z,45.67
2019-03-29T06:01:54.503Z,45.63
2019-03-29T06:04:25.409Z,43.70
2019-03-29T06:06:56.784Z,44.18
2019-03-29T06:09:27.723Z,43.94
2019-03-29T06:11:58.597Z,43.29
2019-03-29T06:14:29.546Z,42.09
2019-03-29T06:17:00.814Z,42.26
2019-03-29T06:19:31.883Z,42.38
2019-03-29T06:22:02.722Z,42.08
2019-03-29T06:24:33.976Z,41.68
2019-03-29T06:27:05.215Z,40.86
2019-03-29T06:29:36.040Z,39.57
2019-03-29T06:32:07.356Z,39.41
2019-03-29T06:34:38.388Z,39.14
2019-03-29T06:37:09.799Z,39.47
2019-03-29T06:39:40.935Z,39.14
2019-03-29T06:42:11.998Z,39.49
2019-03-29T06:44:44.317Z,38.55
2019-03-29T06:47:15.415Z,39.16
2019-03-29T06:49:46.767Z,38.79
2019-03-29T06:52:17.740Z,38.85
2019-03-29T06:54:48.573Z,38.86
2019-03-29T06:57:19.778Z,38.48
2019-03-29T06:59:50.807Z,37.74
2019-03-29T07:02:22.122Z,37.13
2019-03-29T07:04:53.062Z,37.67
2019-03-29T07:07:23.966Z,37.52
2019-03-29T07:09:54.823Z,36.41
2019-03-29T07:12:26.028Z,36.38
2019-03-29T07:14:56.864Z,36.51
2019-03-29T07:17:28.007Z,35.77
2019-03-29T07:19:59.032Z,35.60
2019-03-29T07:22:30.962Z,35.54
2019-03-29T07:25:02.271Z,34.84
2019-03-29T07:27:43.987Z,34.80
2019-03-29T07:30:06.501Z,33.71
2019-03-29T07:32:38.858Z,34.17
2019-03-29T07:35:09.992Z,33.61
2019-03-29T07:37:40.962Z,32.54
2019-03-29T07:40:15.102Z,32.27
2019-03-29T07:42:46.519Z,31.97
2019-03-29T07:45:17.362Z,30.83
2019-03-29T07:47:48.485Z,31.27
2019-03-29T07:50:19.433Z,30.16
2019-03-29T07:52:50.690Z,29.49
2019-03-29T07:55:21.833Z,29.13
2019-03-29T07:57:52.705Z,29.45
2019-03-29T08:00:23.822Z,28.50
2019-03-29T08:02:55.387Z,28.70
2019-03-29T08:05:26.510Z,28.84
2019-03-29T08:07:57.394Z,28.45
2019-03-29T08:10:31.244Z,28.03
2019-03-29T08:13:01.106Z,27.44
2019-03-29T08:15:31.923Z,27.30
2019-03-29T08:18:03.048Z,26.85
2019-03-29T08:20:41.691Z,26.70
2019-03-29T08:23:06.984Z,26.37
2019-03-29T08:25:37.906Z,26.18
2019-03-29T08:28:08.909Z,25.33
2019-03-29T08:30:40.078Z,25.59
2019-03-29T08:33:11.042Z,25.44
2019-03-29T08:35:42.042Z,25.76
2019-03-29T08:38:13.294Z,25.12
2019-03-29T08:40:45.344Z,25.29
2019-03-29T08:43:16.387Z,24.88
2019-03-29T08:45:47.488Z,24.82
2019-03-29T08:48:19.346Z,24.51
2019-03-29T08:50:50.355Z,24.29
2019-03-29T08:53:21.220Z,24.08
2019-03-29T08:55:52.041Z,23.29
2019-03-29T08:58:23.975Z,23.95
2019-03-29T09:00:55.080Z,24.40
2019-03-29T09:03:27.440Z,24.08
2019-03-29T09:05:58.703Z,23.96
2019-03-29T09:08:29.729Z,24.11
2019-03-29T09:11:00.603Z,23.92
2019-03-29T09:13:34.645Z,24.01
2019-03-29T09:16:05.655Z,24.39
2019-03-29T09:18:36.538Z,24.51
2019-03-29T09:21:07.557Z,24.19
2019-03-29T09:23:39.552Z,23.96
2019-03-29T09:26:10.676Z,23.81
2019-03-29T09:28:41.843Z,24.26
2019-03-29T09:31:12.654Z,23.66
2019-03-29T09:33:43.728Z,22.99
2019-03-29T09:36:15.067Z,22.81
2019-03-29T09:38:45.953Z,23.31
2019-03-29T09:41:17.095Z,23.77
2019-03-29T09:43:48.203Z,23.28
2019-03-29T09:46:19.005Z,22.74
2019-03-29T09:48:49.872Z,22.15
2019-03-29T09:51:20.915Z,22.28
2019-03-29T09:53:51.743Z,22.29
2019-03-29T09:56:37.635Z,21.71
2019-03-29T09:58:55.588Z,21.06
2019-03-29T10:01:26.676Z,20.74
2019-03-29T10:03:57.871Z,20.24
2019-03-29T10:06:28.718Z,20.58
2019-03-29T10:08:59.748Z,20.10
2019-03-29T10:11:30.896Z,19.79
2019-03-29T10:14:01.868Z,19.06
2019-03-29T10:16:32.812Z,19.27
2019-03-29T10:19:04.141Z,19.06
2019-03-29T10:21:35.972Z,18.06
2019-03-29T10:24:06.839Z,17.95
2019-03-29T10:26:37.819Z,18.01
2019-03-29T10:29:08.684Z,16.87
2019-03-29T10:31:40.004Z,17.53
2019-03-29T10:34:10.871Z,16.67
2019-03-29T10:36:41.891Z,16.88
2019-03-29T10:39:14.056Z,17.03
2019-03-29T10:41:45.123Z,17.08
2019-03-29T10:44:15.954Z,16.64
2019-03-29T10:46:47.124Z,16.37
2019-03-29T10:49:18.267Z,16.71
2019-03-29T10:51:49.147Z,16.81
2019-03-29T10:54:20.091Z,16.58
2019-03-29T10:56:51.008Z,16.72
2019-03-29T10:59:27.587Z,16.42
2019-03-29T11:01:55.846Z,15.72
2019-03-29T11:04:27.056Z,16.17
2019-03-29T11:06:58.480Z,16.80
2019-03-29T11:09:29.344Z,16.01
2019-03-29T11:12:00.601Z,16.35
2019-03-29T11:14:31.553Z,16.01
2019-03-29T11:17:02.389Z,15.95
2019-03-29T11:19:33.590Z,15.17
2019-03-29T11:22:04.860Z,15.96
2019-03-29T11:24:35.724Z,16.33
2019-03-29T11:27:06.640Z,15.69
2019-03-29T11:29:37.757Z,16.13
2019-03-29T11:32:09.055Z,15.56
2019-03-29T11:34:39.992Z,15.96
2019-03-29T11:37:10.970Z,15.54
2019-03-29T11:39:42.067Z,15.98
2019-03-29T11:42:13.125Z,15.84
2019-03-29T11:44:43.990Z,15.53
2019-03-29T11:47:15.074Z,15.89
2019-03-29T11:49:46.223Z,15.71
2019-03-29T11:52:17.042Z,15.87
2019-03-29T11:54:48.230Z,15.30
2019-03-29T11:57:19.137Z,15.78
2019-03-29T11:59:49.979Z,15.72
2019-03-29T12:02:31.033Z,15.43
2019-03-29T12:04:53.462Z,14.88
2019-03-29T12:07:24.767Z,15.62
2019-03-29T12:09:55.973Z,15.61
2019-03-29T12:12:28.040Z,15.81
2019-03-29T12:14:59.178Z,15.62
2019-03-29T12:17:30.263Z,15.54
2019-03-29T12:20:01.319Z,14.82
2019-03-29T12:22:32.448Z,15.02
2019-03-29T12:25:03.656Z,15.65
2019-03-29T12:27:34.605Z,15.30
2019-03-29T12:30:08.831Z,14.54
2019-03-29T12:32:39.789Z,13.58
2019-03-29T12:35:10.602Z,14.30
2019-03-29T12:37:41.875Z,14.27
2019-03-29T12:40:13.424Z,14.71
2019-03-29T12:42:44.370Z,15.22
2019-03-29T12:45:15.701Z,14.93
2019-03-29T12:47:46.566Z,15.71
2019-03-29T12:50:17.506Z,15.71
2019-03-29T12:52:48.748Z,15.65
2019-03-29T12:55:19.642Z,14.49
2019-03-29T12:57:50.474Z,15.56
2019-03-29T13:00:21.667Z,15.56
2019-03-29T13:02:52.499Z,16.36
2019-03-29T13:05:23.293Z,15.24
2019-03-29T13:07:54.567Z,15.44
2019-03-29T13:10:26.042Z,13.89
2019-03-29T13:13:00.402Z,13.97
2019-03-29T13:15:29.813Z,14.18
2019-03-29T13:18:01.126Z,15.05
2019-03-29T13:20:32.048Z,15.48
2019-03-29T13:23:03.202Z,15.61
2019-03-29T13:25:34.493Z,15.18
2019-03-29T13:28:05.533Z,15.50
2019-03-29T13:30:36.353Z,14.68
2019-03-29T13:33:07.292Z,14.65
2019-03-29T13:35:38.135Z,14.50
2019-03-29T13:38:08.977Z,14.30
2019-03-29T13:40:40.138Z,14.19
2019-03-29T13:43:11.132Z,14.38
2019-03-29T13:45:42.188Z,14.44
2019-03-29T13:48:13.055Z,14.19
2019-03-29T13:50:43.933Z,14.24
2019-03-29T13:53:15.046Z,15.28
2019-03-29T13:55:45.873Z,15.29
2019-03-29T13:58:16.786Z,15.57
2019-03-29T14:00:47.900Z,15.61
2019-03-29T14:03:18.913Z,15.24
2019-03-29T14:05:49.804Z,15.15
2019-03-29T14:08:20.938Z,15.00
2019-03-29T14:10:51.917Z,15.91
2019-03-29T14:13:22.820Z,15.77
2019-03-29T14:15:53.782Z,16.18
2019-03-29T14:18:24.666Z,16.35
2019-03-29T14:20:55.884Z,16.32
2019-03-29T14:23:27.083Z,16.31
2019-03-29T14:25:57.939Z,16.59
2019-03-29T14:28:29.157Z,16.59
2019-03-29T14:31:00.355Z,16.85
2019-03-29T14:33:31.242Z,17.25
2019-03-29T14:36:02.405Z,16.62
2019-03-29T14:38:33.550Z,16.92
2019-03-29T14:41:04.515Z,16.67
2019-03-29T14:43:35.373Z,16.67
2019-03-29T14:46:06.492Z,16.37
2019-03-29T14:48:37.481Z,15.56
2019-03-29T14:51:08.625Z,15.21
2019-03-29T14:53:39.436Z,15.01
2019-03-29T14:56:10.631Z,14.68
2019-03-29T14:58:41.740Z,15.05
2019-03-29T15:01:12.549Z,14.81
2019-03-29T15:03:43.547Z,14.11
2019-03-29T15:06:14.753Z,14.35
2019-03-29T15:08:45.705Z,14.26
2019-03-29T15:11:22.441Z,14.51
2019-03-29T15:13:49.226Z,14.55
2019-03-29T15:16:20.038Z,14.42
2019-03-29T15:18:50.978Z,14.67
2019-03-29T15:21:22.164Z,14.80
2019-03-29T15:23:53.055Z,14.48
2019-03-29T15:26:24.011Z,14.43
2019-03-29T15:28:55.140Z,13.95
2019-03-29T15:31:26.403Z,14.05
2019-03-29T15:33:57.514Z,14.67
2019-03-29T15:36:28.826Z,14.33
2019-03-29T15:38:59.947Z,14.66
2019-03-29T15:41:30.795Z,14.72
2019-03-29T15:44:01.655Z,14.69
2019-03-29T15:46:32.667Z,14.40
2019-03-29T15:49:03.479Z,14.46
2019-03-29T15:51:34.556Z,15.01
2019-03-29T15:54:05.364Z,15.16
2019-03-29T15:56:36.395Z,15.31
2019-03-29T15:59:07.591Z,16.87
2019-03-29T16:01:38.867Z,17.39
2019-03-29T16:04:11.085Z,17.63
2019-03-29T16:06:43.763Z,17.51
2019-03-29T16:09:14.639Z,17.46
2019-03-29T16:11:45.522Z,17.76
2019-03-29T16:14:16.564Z,18.54
2019-03-29T16:16:47.434Z,19.04
2019-03-29T16:19:18.286Z,19.21
2019-03-29T16:21:49.305Z,19.52
2019-03-29T16:24:20.346Z,19.68
2019-03-29T16:26:51.361Z,20.02
2019-03-29T16:29:22.194Z,20.35
2019-03-29T16:31:53.190Z,20.35
2019-03-29T16:34:24.352Z,20.99
2019-03-29T16:36:55.330Z,21.86
2019-03-29T16:39:26.252Z,22.99
2019-03-29T16:41:57.406Z,23.74
2019-03-29T16:44:28.323Z,24.11
2019-03-29T16:46:59.350Z,24.78
2019-03-29T16:49:30.565Z,25.07
2019-03-29T16:52:01.677Z,25.57
2019-03-29T16:54:32.869Z,26.02
2019-03-29T16:57:03.748Z,26.30
2019-03-29T16:59:34.699Z,27.08
2019-03-29T17:02:06.115Z,27.17
2019-03-29T17:04:37.154Z,27.45
2019-03-29T17:07:08.030Z,27.96
2019-03-29T17:09:39.279Z,28.58
2019-03-29T17:12:10.173Z,28.76
2019-03-29T17:14:41.207Z,29.09
2019-03-29T17:17:12.296Z,29.21
2019-03-29T17:19:43.561Z,29.72
2019-03-29T17:22:14.366Z,30.82
2019-03-29T17:24:56.450Z,30.98
2019-03-29T17:27:18.164Z,31.18
2019-03-29T17:29:49.304Z,32.43
2019-03-29T17:32:21.645Z,32.36
2019-03-29T17:34:52.805Z,33.10
2019-03-29T17:37:23.927Z,32.97
2019-03-29T17:39:56.066Z,33.53
2019-03-29T17:42:27.051Z,33.87
2019-03-29T17:44:59.133Z,34.15
2019-03-29T17:47:30.285Z,34.51
2019-03-29T17:50:01.353Z,34.45
2019-03-29T17:52:32.257Z,34.75
2019-03-29T17:55:03.277Z,34.76
2019-03-29T17:57:34.209Z,35.34
2019-03-29T18:00:06.325Z,35.42
2019-03-29T18:02:37.256Z,35.65
2019-03-29T18:05:08.344Z,35.50
2019-03-29T18:07:39.588Z,35.73
2019-03-29T18:10:11.019Z,35.70
2019-03-29T18:12:41.852Z,35.96
2019-03-29T18:15:13.477Z,36.07
2019-03-29T18:17:44.313Z,36.40
2019-03-29T18:20:16.598Z,36.92
2019-03-29T18:22:47.802Z,37.21
2019-03-29T18:25:18.872Z,37.12
2019-03-29T18:27:49.676Z,36.98
2019-03-29T18:30:31.576Z,36.75
2019-03-29T18:33:02.510Z,37.07
2019-03-29T18:35:34.679Z,36.98
2019-03-29T18:38:05.608Z,37.49
2019-03-29T18:40:36.434Z,37.43
2019-03-29T18:43:07.544Z,37.82
2019-03-29T18:45:41.462Z,37.49
2019-03-29T18:48:11.515Z,38.61
2019-03-29T18:50:42.759Z,38.23
2019-03-29T18:53:14.191Z,38.22
2019-03-29T18:55:45.134Z,38.90
2019-03-29T18:58:16.436Z,39.36
2019-03-29T19:00:47.558Z,39.47
2019-03-29T19:03:18.432Z,39.08
2019-03-29T19:05:49.486Z,39.50
2019-03-29T19:08:20.332Z,39.75
2019-03-29T19:10:51.231Z,39.83
2019-03-29T19:13:22.632Z,39.74
2019-03-29T19:15:53.653Z,39.85
2019-03-29T19:18:24.779Z,40.41
2019-03-29T19:20:55.898Z,40.30
2019-03-29T19:23:26.849Z,40.49
2019-03-29T19:25:57.762Z,40.33
2019-03-29T19:28:29.200Z,40.34
2019-03-29T19:31:00.048Z,40.50
2019-03-29T19:33:31.265Z,40.29
2019-03-29T19:36:02.180Z,40.50
2019-03-29T19:38:33.049Z,40.76
2019-03-29T19:41:03.871Z,40.69
2019-03-29T19:43:35.268Z,40.72
2019-03-29T19:46:06.431Z,40.96
2019-03-29T19:48:38.271Z,41.45
2019-03-29T19:51:09.431Z,41.54
2019-03-29T19:53:40.834Z,41.87
2019-03-29T19:56:11.751Z,41.95
2019-03-29T19:58:42.936Z,41.93
2019-03-29T20:01:14.013Z,42.20
2019-03-29T20:03:44.943Z,42.42
2019-03-29T20:06:15.877Z,42.77
2019-03-29T20:08:46.706Z,42.80
2019-03-29T20:11:17.611Z,42.72
2019-03-29T20:13:48.855Z,42.93
2019-03-29T20:16:19.774Z,42.97
2019-03-29T20:18:50.948Z,43.13
2019-03-29T20:21:22.123Z,43.21
2019-03-29T20:23:53.067Z,43.53
2019-03-29T20:26:23.960Z,43.66
2019-03-29T20:28:55.320Z,43.95
2019-03-29T20:31:27.968Z,43.97
2019-03-29T20:33:59.070Z,44.22
2019-03-29T20:36:30.034Z,44.28
2019-03-29T20:39:01.817Z,44.70
2019-03-29T20:41:34.387Z,45.24
2019-03-29T20:44:05.340Z,45.95
2019-03-29T20:46:36.377Z,45.23
2019-03-29T20:49:07.467Z,45.29
2019-03-29T20:51:38.279Z,45.35
2019-03-29T20:54:09.354Z,45.74
2019-03-29T20:56:40.448Z,45.80
2019-03-29T20:59:12.819Z,47.14
2019-03-29T21:01:43.656Z,47.76
2019-03-29T21:04:15.041Z,46.77
2019-03-29T21:06:45.902Z,46.60
2019-03-29T21:09:16.996Z,46.89
2019-03-29T21:11:47.976Z,47.20
2019-03-29T21:14:19.230Z,48.84
2019-03-29T21:16:50.520Z,49.65
2019-03-29T21:19:21.630Z,49.73
2019-03-29T21:21:53.609Z,49.58
2019-03-29T21:24:24.890Z,50.07
2019-03-29T21:26:55.936Z,50.21
2019-03-29T21:29:26.814Z,51.30
2019-03-29T21:31:58.001Z,52.00
2019-03-29T21:34:29.318Z,52.93
2019-03-29T21:37:00.128Z,53.05
2019-03-29T21:39:31.444Z,53.10
2019-03-29T21:42:02.779Z,53.51
2019-03-29T21:44:33.997Z,53.67
2019-03-29T21:47:04.968Z,53.59
2019-03-29T21:49:36.025Z,53.81
2019-03-29T21:52:07.151Z,54.18
2019-03-29T21:54:38.455Z,53.63
2019-03-29T21:57:09.388Z,53.62
2019-03-29T21:59:40.598Z,53.28
2019-03-29T22:02:11.723Z,53.75
2019-03-29T22:04:43.854Z,53.90
2019-03-29T22:07:14.861Z,54.50
2019-03-29T22:09:46.075Z,53.94
2019-03-29T22:12:16.910Z,53.44
2019-03-29T22:14:48.038Z,53.45
2019-03-29T22:17:19.110Z,53.22
2019-03-29T22:19:50.291Z,53.71
2019-03-29T22:22:21.413Z,53.26
2019-03-29T22:24:52.338Z,53.98
2019-03-29T22:27:23.282Z,54.51
2019-03-29T22:29:54.603Z,55.38
2019-03-29T22:32:25.529Z,55.19
2019-03-29T22:34:56.405Z,55.49
2019-03-29T22:37:27.562Z,55.66
2019-03-29T22:39:58.402Z,55.30
2019-03-29T22:42:29.266Z,54.68
2019-03-29T22:45:00.431Z,54.25
2019-03-29T22:47:31.606Z,54.17
2019-03-29T22:50:02.963Z,54.45
2019-03-29T22:52:33.796Z,54.47
2019-03-29T22:55:04.928Z,55.08
2019-03-29T22:57:36.087Z,54.90
2019-03-29T23:00:14.990Z,55.05
2019-03-29T23:02:47.681Z,55.42
2019-03-29T23:05:18.631Z,55.04
2019-03-29T23:07:49.563Z,55.31
2019-03-29T23:10:20.570Z,55.31
2019-03-29T23:12:51.655Z,55.45
2019-03-29T23:15:22.794Z,55.52
2019-03-29T23:17:53.749Z,55.36
2019-03-29T23:20:24.893Z,55.30
2019-03-29T23:22:55.751Z,54.81
2019-03-29T23:25:27.062Z,54.51
2019-03-29T23:27:58.238Z,54.50
2019-03-29T23:30:29.163Z,54.96
2019-03-29T23:33:00.300Z,54.89
2019-03-29T23:35:31.297Z,55.68
2019-03-29T23:38:02.180Z,56.58
2019-03-29T23:40:33.127Z,57.12
2019-03-29T23:43:04.359Z,57.16
2019-03-29T23:45:35.483Z,56.77
2019-03-29T23:48:06.545Z,56.86
2019-03-29T23:50:37.861Z,57.02
2019-03-29T23:53:08.784Z,57.25
2019-03-29T23:55:40.077Z,57.26
2019-03-29T23:58:11.239Z,57.31
